sensor_id;sensor_type;location;lat;lon;timestamp;P1;durP1;ratioP1;P2;durP2;ratioP2
74375;SDS011;62812;55.188;61.302;2023-05-13T00:00:54;19.92;;;9.23;;
74375;SDS011;62812;55.188;61.302;2023-05-13T00:03:22;17.83;;;8.23;;
74375;SDS011;62812;55.188;61.302;2023-05-13T00:05:49;19.80;;;8.75;;
74375;SDS011;62812;55.188;61.302;2023-05-13T00:08:16;18.48;;;8.43;;
74375;SDS011;62812;55.188;61.302;2023-05-13T00:10:44;21.73;;;9.60;;
74375;SDS011;62812;55.188;61.302;2023-05-13T00:13:11;19.30;;;9.43;;
74375;SDS011;62812;55.188;61.302;2023-05-13T00:15:38;20.38;;;8.95;;
74375;SDS011;62812;55.188;61.302;2023-05-13T00:18:05;22.48;;;9.13;;
74375;SDS011;62812;55.188;61.302;2023-05-13T00:20:33;19.85;;;9.02;;
74375;SDS011;62812;55.188;61.302;2023-05-13T00:23:00;20.63;;;9.10;;
74375;SDS011;62812;55.188;61.302;2023-05-13T00:25:28;19.42;;;8.60;;
74375;SDS011;62812;55.188;61.302;2023-05-13T00:27:55;17.98;;;8.48;;
74375;SDS011;62812;55.188;61.302;2023-05-13T00:30:22;19.52;;;9.32;;
74375;SDS011;62812;55.188;61.302;2023-05-13T00:32:48;18.95;;;8.75;;
74375;SDS011;62812;55.188;61.302;2023-05-13T00:35:15;21.88;;;8.80;;
74375;SDS011;62812;55.188;61.302;2023-05-13T00:37:44;20.38;;;8.73;;
74375;SDS011;62812;55.188;61.302;2023-05-13T00:40:14;24.80;;;8.63;;
74375;SDS011;62812;55.188;61.302;2023-05-13T00:42:44;16.17;;;7.68;;
74375;SDS011;62812;55.188;61.302;2023-05-13T00:45:12;20.77;;;7.32;;
74375;SDS011;62812;55.188;61.302;2023-05-13T00:47:39;17.27;;;6.95;;
74375;SDS011;62812;55.188;61.302;2023-05-13T00:50:07;17.67;;;6.50;;
74375;SDS011;62812;55.188;61.302;2023-05-13T00:52:36;16.88;;;7.00;;
74375;SDS011;62812;55.188;61.302;2023-05-13T00:55:05;13.88;;;6.18;;
74375;SDS011;62812;55.188;61.302;2023-05-13T00:57:33;12.98;;;5.40;;
74375;SDS011;62812;55.188;61.302;2023-05-13T01:00:01;10.50;;;4.50;;
74375;SDS011;62812;55.188;61.302;2023-05-13T01:02:31;12.52;;;5.38;;
74375;SDS011;62812;55.188;61.302;2023-05-13T01:05:03;11.43;;;5.47;;
74375;SDS011;62812;55.188;61.302;2023-05-13T01:07:40;10.23;;;4.85;;
74375;SDS011;62812;55.188;61.302;2023-05-13T01:10:14;9.57;;;4.47;;
74375;SDS011;62812;55.188;61.302;2023-05-13T01:12:49;11.02;;;4.45;;
74375;SDS011;62812;55.188;61.302;2023-05-13T01:17:54;16.45;;;5.40;;
74375;SDS011;62812;55.188;61.302;2023-05-13T01:20:24;19.95;;;5.60;;
74375;SDS011;62812;55.188;61.302;2023-05-13T01:22:54;13.43;;;4.15;;
74375;SDS011;62812;55.188;61.302;2023-05-13T01:25:22;14.35;;;5.18;;
74375;SDS011;62812;55.188;61.302;2023-05-13T01:27:50;19.35;;;5.05;;
74375;SDS011;62812;55.188;61.302;2023-05-13T01:30:17;15.02;;;4.30;;
74375;SDS011;62812;55.188;61.302;2023-05-13T01:32:45;9.23;;;3.50;;
74375;SDS011;62812;55.188;61.302;2023-05-13T01:35:12;11.60;;;4.10;;
74375;SDS011;62812;55.188;61.302;2023-05-13T01:37:41;8.60;;;3.45;;
74375;SDS011;62812;55.188;61.302;2023-05-13T01:40:11;8.43;;;3.42;;
74375;SDS011;62812;55.188;61.302;2023-05-13T01:42:38;8.93;;;3.25;;
74375;SDS011;62812;55.188;61.302;2023-05-13T01:45:06;9.35;;;3.85;;
74375;SDS011;62812;55.188;61.302;2023-05-13T01:47:34;11.00;;;4.35;;
74375;SDS011;62812;55.188;61.302;2023-05-13T01:50:01;12.18;;;4.50;;
74375;SDS011;62812;55.188;61.302;2023-05-13T01:52:29;13.60;;;4.68;;
74375;SDS011;62812;55.188;61.302;2023-05-13T01:54:57;16.77;;;5.78;;
74375;SDS011;62812;55.188;61.302;2023-05-13T01:57:25;19.25;;;5.35;;
74375;SDS011;62812;55.188;61.302;2023-05-13T01:59:52;16.75;;;6.07;;
74375;SDS011;62812;55.188;61.302;2023-05-13T02:02:19;18.38;;;5.60;;
74375;SDS011;62812;55.188;61.302;2023-05-13T02:04:45;15.43;;;5.90;;
74375;SDS011;62812;55.188;61.302;2023-05-13T02:07:12;20.27;;;9.07;;
74375;SDS011;62812;55.188;61.302;2023-05-13T02:09:39;14.52;;;7.05;;
74375;SDS011;62812;55.188;61.302;2023-05-13T02:12:06;19.33;;;7.70;;
74375;SDS011;62812;55.188;61.302;2023-05-13T02:14:35;19.35;;;8.35;;
74375;SDS011;62812;55.188;61.302;2023-05-13T02:17:03;18.10;;;7.38;;
74375;SDS011;62812;55.188;61.302;2023-05-13T02:19:30;18.60;;;8.60;;
74375;SDS011;62812;55.188;61.302;2023-05-13T02:21:57;18.42;;;8.55;;
74375;SDS011;62812;55.188;61.302;2023-05-13T02:24:24;22.58;;;8.45;;
74375;SDS011;62812;55.188;61.302;2023-05-13T02:26:51;19.58;;;7.82;;
74375;SDS011;62812;55.188;61.302;2023-05-13T02:29:18;21.42;;;9.48;;
74375;SDS011;62812;55.188;61.302;2023-05-13T02:31:51;17.60;;;9.45;;
74375;SDS011;62812;55.188;61.302;2023-05-13T02:34:18;21.30;;;8.60;;
74375;SDS011;62812;55.188;61.302;2023-05-13T02:36:45;19.25;;;7.80;;
74375;SDS011;62812;55.188;61.302;2023-05-13T02:39:13;19.85;;;9.00;;
74375;SDS011;62812;55.188;61.302;2023-05-13T02:41:40;16.70;;;7.22;;
74375;SDS011;62812;55.188;61.302;2023-05-13T02:44:08;18.40;;;7.13;;
74375;SDS011;62812;55.188;61.302;2023-05-13T02:46:35;20.10;;;8.15;;
74375;SDS011;62812;55.188;61.302;2023-05-13T02:49:04;14.68;;;7.50;;
74375;SDS011;62812;55.188;61.302;2023-05-13T02:51:30;15.30;;;6.53;;
74375;SDS011;62812;55.188;61.302;2023-05-13T02:53:57;15.68;;;6.78;;
74375;SDS011;62812;55.188;61.302;2023-05-13T02:56:24;14.32;;;7.00;;
74375;SDS011;62812;55.188;61.302;2023-05-13T02:58:51;15.18;;;7.15;;
74375;SDS011;62812;55.188;61.302;2023-05-13T03:01:18;14.93;;;6.75;;
74375;SDS011;62812;55.188;61.302;2023-05-13T03:03:46;14.48;;;6.60;;
74375;SDS011;62812;55.188;61.302;2023-05-13T03:06:14;12.15;;;6.15;;
74375;SDS011;62812;55.188;61.302;2023-05-13T03:08:41;10.95;;;5.70;;
74375;SDS011;62812;55.188;61.302;2023-05-13T03:11:08;15.27;;;6.93;;
74375;SDS011;62812;55.188;61.302;2023-05-13T03:13:36;11.63;;;6.15;;
74375;SDS011;62812;55.188;61.302;2023-05-13T03:16:03;15.50;;;6.50;;
74375;SDS011;62812;55.188;61.302;2023-05-13T03:18:30;11.85;;;5.95;;
74375;SDS011;62812;55.188;61.302;2023-05-13T03:20:58;12.00;;;5.85;;
74375;SDS011;62812;55.188;61.302;2023-05-13T03:23:27;12.18;;;5.93;;
74375;SDS011;62812;55.188;61.302;2023-05-13T03:25:55;11.90;;;5.90;;
74375;SDS011;62812;55.188;61.302;2023-05-13T03:28:22;11.15;;;5.65;;
74375;SDS011;62812;55.188;61.302;2023-05-13T03:30:48;10.70;;;5.40;;
74375;SDS011;62812;55.188;61.302;2023-05-13T03:33:16;12.55;;;5.90;;
74375;SDS011;62812;55.188;61.302;2023-05-13T03:35:44;9.43;;;4.60;;
74375;SDS011;62812;55.188;61.302;2023-05-13T03:38:13;11.25;;;5.82;;
74375;SDS011;62812;55.188;61.302;2023-05-13T03:40:43;10.48;;;4.93;;
74375;SDS011;62812;55.188;61.302;2023-05-13T03:43:10;9.60;;;5.40;;
74375;SDS011;62812;55.188;61.302;2023-05-13T03:45:36;12.85;;;6.05;;
74375;SDS011;62812;55.188;61.302;2023-05-13T03:48:05;11.50;;;6.38;;
74375;SDS011;62812;55.188;61.302;2023-05-13T03:50:32;11.43;;;6.00;;
74375;SDS011;62812;55.188;61.302;2023-05-13T03:52:59;11.40;;;5.88;;
74375;SDS011;62812;55.188;61.302;2023-05-13T03:55:26;11.32;;;6.05;;
74375;SDS011;62812;55.188;61.302;2023-05-13T03:57:55;11.90;;;6.10;;
74375;SDS011;62812;55.188;61.302;2023-05-13T04:00:21;12.10;;;6.55;;
74375;SDS011;62812;55.188;61.302;2023-05-13T04:02:48;10.75;;;5.38;;
74375;SDS011;62812;55.188;61.302;2023-05-13T04:05:21;13.75;;;5.80;;
74375;SDS011;62812;55.188;61.302;2023-05-13T04:07:48;13.40;;;6.35;;
74375;SDS011;62812;55.188;61.302;2023-05-13T04:10:15;11.40;;;5.68;;
74375;SDS011;62812;55.188;61.302;2023-05-13T04:12:41;12.07;;;5.85;;
74375;SDS011;62812;55.188;61.302;2023-05-13T04:15:10;10.48;;;5.40;;
74375;SDS011;62812;55.188;61.302;2023-05-13T04:17:37;10.55;;;5.13;;
74375;SDS011;62812;55.188;61.302;2023-05-13T04:20:04;13.13;;;5.40;;
74375;SDS011;62812;55.188;61.302;2023-05-13T04:22:31;11.60;;;5.65;;
74375;SDS011;62812;55.188;61.302;2023-05-13T04:25:00;10.07;;;4.80;;
74375;SDS011;62812;55.188;61.302;2023-05-13T04:27:27;12.40;;;5.75;;
74375;SDS011;62812;55.188;61.302;2023-05-13T04:29:53;12.15;;;5.28;;
74375;SDS011;62812;55.188;61.302;2023-05-13T04:32:22;10.45;;;4.85;;
74375;SDS011;62812;55.188;61.302;2023-05-13T04:34:49;8.27;;;3.83;;
74375;SDS011;62812;55.188;61.302;2023-05-13T04:37:16;10.10;;;4.07;;
74375;SDS011;62812;55.188;61.302;2023-05-13T04:39:46;9.32;;;4.80;;
74375;SDS011;62812;55.188;61.302;2023-05-13T04:42:13;10.07;;;4.95;;
74375;SDS011;62812;55.188;61.302;2023-05-13T04:44:43;9.55;;;4.70;;
74375;SDS011;62812;55.188;61.302;2023-05-13T04:47:10;10.63;;;5.68;;
74375;SDS011;62812;55.188;61.302;2023-05-13T04:49:38;10.52;;;4.78;;
74375;SDS011;62812;55.188;61.302;2023-05-13T04:52:05;9.57;;;4.35;;
74375;SDS011;62812;55.188;61.302;2023-05-13T04:54:32;8.30;;;4.70;;
74375;SDS011;62812;55.188;61.302;2023-05-13T04:57:02;7.93;;;3.60;;
74375;SDS011;62812;55.188;61.302;2023-05-13T04:59:29;9.02;;;4.65;;
74375;SDS011;62812;55.188;61.302;2023-05-13T05:01:56;9.10;;;4.85;;
74375;SDS011;62812;55.188;61.302;2023-05-13T05:04:23;10.48;;;4.97;;
74375;SDS011;62812;55.188;61.302;2023-05-13T05:06:53;8.60;;;4.80;;
74375;SDS011;62812;55.188;61.302;2023-05-13T05:09:20;8.32;;;4.82;;
74375;SDS011;62812;55.188;61.302;2023-05-13T05:11:48;11.93;;;5.22;;
74375;SDS011;62812;55.188;61.302;2023-05-13T05:14:15;8.48;;;4.50;;
74375;SDS011;62812;55.188;61.302;2023-05-13T05:16:43;10.63;;;4.72;;
74375;SDS011;62812;55.188;61.302;2023-05-13T05:19:10;10.05;;;4.63;;
74375;SDS011;62812;55.188;61.302;2023-05-13T05:21:37;9.30;;;5.07;;
74375;SDS011;62812;55.188;61.302;2023-05-13T05:24:07;10.60;;;5.25;;
74375;SDS011;62812;55.188;61.302;2023-05-13T05:26:35;9.23;;;5.13;;
74375;SDS011;62812;55.188;61.302;2023-05-13T05:29:03;11.52;;;5.20;;
74375;SDS011;62812;55.188;61.302;2023-05-13T05:31:30;11.48;;;5.55;;
74375;SDS011;62812;55.188;61.302;2023-05-13T05:33:59;9.40;;;4.65;;
74375;SDS011;62812;55.188;61.302;2023-05-13T05:36:27;11.15;;;5.32;;
74375;SDS011;62812;55.188;61.302;2023-05-13T05:41:24;10.20;;;5.25;;
74375;SDS011;62812;55.188;61.302;2023-05-13T05:43:51;12.35;;;5.13;;
74375;SDS011;62812;55.188;61.302;2023-05-13T05:46:20;13.32;;;5.35;;
74375;SDS011;62812;55.188;61.302;2023-05-13T05:48:48;11.35;;;4.90;;
74375;SDS011;62812;55.188;61.302;2023-05-13T05:51:15;11.60;;;5.57;;
74375;SDS011;62812;55.188;61.302;2023-05-13T05:53:42;12.85;;;5.60;;
74375;SDS011;62812;55.188;61.302;2023-05-13T05:56:09;14.02;;;5.95;;
74375;SDS011;62812;55.188;61.302;2023-05-13T05:58:38;12.68;;;6.35;;
74375;SDS011;62812;55.188;61.302;2023-05-13T06:01:04;12.50;;;6.43;;
74375;SDS011;62812;55.188;61.302;2023-05-13T06:03:35;15.70;;;6.15;;
74375;SDS011;62812;55.188;61.302;2023-05-13T06:06:02;15.98;;;6.40;;
74375;SDS011;62812;55.188;61.302;2023-05-13T06:08:31;12.93;;;6.45;;
74375;SDS011;62812;55.188;61.302;2023-05-13T06:10:58;11.77;;;5.78;;
74375;SDS011;62812;55.188;61.302;2023-05-13T06:13:26;11.18;;;5.50;;
74375;SDS011;62812;55.188;61.302;2023-05-13T06:15:54;10.60;;;4.65;;
74375;SDS011;62812;55.188;61.302;2023-05-13T06:18:26;9.43;;;4.60;;
74375;SDS011;62812;55.188;61.302;2023-05-13T06:20:53;10.75;;;4.80;;
74375;SDS011;62812;55.188;61.302;2023-05-13T06:23:20;13.40;;;4.75;;
74375;SDS011;62812;55.188;61.302;2023-05-13T06:25:50;10.98;;;5.35;;
74375;SDS011;62812;55.188;61.302;2023-05-13T06:28:24;12.52;;;5.32;;
74375;SDS011;62812;55.188;61.302;2023-05-13T06:30:52;10.57;;;5.07;;
74375;SDS011;62812;55.188;61.302;2023-05-13T06:33:20;8.35;;;3.75;;
74375;SDS011;62812;55.188;61.302;2023-05-13T06:35:47;10.50;;;4.25;;
74375;SDS011;62812;55.188;61.302;2023-05-13T06:38:17;9.68;;;4.90;;
74375;SDS011;62812;55.188;61.302;2023-05-13T06:40:44;9.73;;;4.22;;
74375;SDS011;62812;55.188;61.302;2023-05-13T06:43:14;12.48;;;4.82;;
74375;SDS011;62812;55.188;61.302;2023-05-13T06:45:44;11.63;;;4.68;;
74375;SDS011;62812;55.188;61.302;2023-05-13T06:48:14;12.82;;;5.50;;
74375;SDS011;62812;55.188;61.302;2023-05-13T06:50:41;11.65;;;6.00;;
74375;SDS011;62812;55.188;61.302;2023-05-13T06:53:08;12.68;;;5.78;;
74375;SDS011;62812;55.188;61.302;2023-05-13T06:55:37;13.35;;;5.93;;
74375;SDS011;62812;55.188;61.302;2023-05-13T06:58:06;12.70;;;5.40;;
74375;SDS011;62812;55.188;61.302;2023-05-13T07:00:35;9.75;;;4.60;;
74375;SDS011;62812;55.188;61.302;2023-05-13T07:03:06;15.88;;;5.13;;
74375;SDS011;62812;55.188;61.302;2023-05-13T07:05:40;13.57;;;6.00;;
74375;SDS011;62812;55.188;61.302;2023-05-13T07:08:07;14.23;;;5.53;;
74375;SDS011;62812;55.188;61.302;2023-05-13T07:10:35;13.35;;;5.13;;
74375;SDS011;62812;55.188;61.302;2023-05-13T07:13:03;10.68;;;5.18;;
74375;SDS011;62812;55.188;61.302;2023-05-13T07:15:32;12.63;;;5.18;;
74375;SDS011;62812;55.188;61.302;2023-05-13T07:17:59;12.35;;;5.28;;
74375;SDS011;62812;55.188;61.302;2023-05-13T07:20:26;10.18;;;4.90;;
74375;SDS011;62812;55.188;61.302;2023-05-13T07:22:54;11.95;;;4.50;;
74375;SDS011;62812;55.188;61.302;2023-05-13T07:25:23;20.05;;;5.70;;
74375;SDS011;62812;55.188;61.302;2023-05-13T07:27:50;16.52;;;6.03;;
74375;SDS011;62812;55.188;61.302;2023-05-13T07:30:19;21.15;;;6.43;;
74375;SDS011;62812;55.188;61.302;2023-05-13T07:32:46;17.48;;;5.72;;
74375;SDS011;62812;55.188;61.302;2023-05-13T07:35:13;20.33;;;6.20;;
74375;SDS011;62812;55.188;61.302;2023-05-13T07:37:41;18.88;;;6.10;;
74375;SDS011;62812;55.188;61.302;2023-05-13T07:40:11;19.63;;;6.63;;
74375;SDS011;62812;55.188;61.302;2023-05-13T07:42:39;15.25;;;5.68;;
74375;SDS011;62812;55.188;61.302;2023-05-13T07:45:06;18.63;;;6.40;;
74375;SDS011;62812;55.188;61.302;2023-05-13T07:47:35;17.00;;;5.80;;
74375;SDS011;62812;55.188;61.302;2023-05-13T07:52:54;16.00;;;6.93;;
74375;SDS011;62812;55.188;61.302;2023-05-13T07:55:23;13.07;;;5.82;;
74375;SDS011;62812;55.188;61.302;2023-05-13T07:57:52;16.33;;;6.65;;
74375;SDS011;62812;55.188;61.302;2023-05-13T08:00:20;14.65;;;5.85;;
74375;SDS011;62812;55.188;61.302;2023-05-13T08:02:48;13.73;;;6.10;;
74375;SDS011;62812;55.188;61.302;2023-05-13T08:05:17;16.48;;;7.10;;
74375;SDS011;62812;55.188;61.302;2023-05-13T08:07:45;17.48;;;6.82;;
74375;SDS011;62812;55.188;61.302;2023-05-13T08:10:13;11.80;;;5.70;;
74375;SDS011;62812;55.188;61.302;2023-05-13T08:12:41;19.63;;;7.57;;
74375;SDS011;62812;55.188;61.302;2023-05-13T08:15:10;17.50;;;7.30;;
74375;SDS011;62812;55.188;61.302;2023-05-13T08:17:44;15.13;;;7.00;;
74375;SDS011;62812;55.188;61.302;2023-05-13T08:23:06;14.55;;;6.10;;
74375;SDS011;62812;55.188;61.302;2023-05-13T08:25:35;16.20;;;7.03;;
74375;SDS011;62812;55.188;61.302;2023-05-13T08:28:04;16.48;;;7.18;;
74375;SDS011;62812;55.188;61.302;2023-05-13T08:30:34;15.65;;;7.90;;
74375;SDS011;62812;55.188;61.302;2023-05-13T08:36:01;17.10;;;7.75;;
74375;SDS011;62812;55.188;61.302;2023-05-13T08:38:29;18.27;;;9.18;;
74375;SDS011;62812;55.188;61.302;2023-05-13T08:40:58;16.27;;;6.43;;
74375;SDS011;62812;55.188;61.302;2023-05-13T08:46:39;27.83;;;8.80;;
74375;SDS011;62812;55.188;61.302;2023-05-13T08:49:12;20.63;;;7.88;;
74375;SDS011;62812;55.188;61.302;2023-05-13T08:51:42;23.85;;;8.27;;
74375;SDS011;62812;55.188;61.302;2023-05-13T08:54:13;17.52;;;8.30;;
74375;SDS011;62812;55.188;61.302;2023-05-13T08:56:41;17.65;;;8.20;;
74375;SDS011;62812;55.188;61.302;2023-05-13T08:59:10;13.18;;;6.63;;
74375;SDS011;62812;55.188;61.302;2023-05-13T09:01:39;17.20;;;8.70;;
74375;SDS011;62812;55.188;61.302;2023-05-13T09:04:07;15.55;;;8.13;;
74375;SDS011;62812;55.188;61.302;2023-05-13T09:06:35;18.85;;;8.93;;
74375;SDS011;62812;55.188;61.302;2023-05-13T09:09:03;19.92;;;9.32;;
74375;SDS011;62812;55.188;61.302;2023-05-13T09:11:30;19.85;;;9.07;;
74375;SDS011;62812;55.188;61.302;2023-05-13T09:14:01;21.40;;;9.80;;
74375;SDS011;62812;55.188;61.302;2023-05-13T09:16:34;20.77;;;9.88;;
74375;SDS011;62812;55.188;61.302;2023-05-13T09:19:04;14.50;;;6.88;;
74375;SDS011;62812;55.188;61.302;2023-05-13T09:21:33;15.23;;;7.82;;
74375;SDS011;62812;55.188;61.302;2023-05-13T09:24:05;14.90;;;7.30;;
74375;SDS011;62812;55.188;61.302;2023-05-13T09:26:35;14.57;;;7.82;;
74375;SDS011;62812;55.188;61.302;2023-05-13T09:29:21;17.17;;;7.82;;
74375;SDS011;62812;55.188;61.302;2023-05-13T09:31:55;16.73;;;8.20;;
74375;SDS011;62812;55.188;61.302;2023-05-13T09:34:25;20.42;;;9.40;;
74375;SDS011;62812;55.188;61.302;2023-05-13T09:37:00;17.13;;;9.30;;
74375;SDS011;62812;55.188;61.302;2023-05-13T09:39:29;23.77;;;11.48;;
74375;SDS011;62812;55.188;61.302;2023-05-13T09:41:57;28.50;;;9.98;;
74375;SDS011;62812;55.188;61.302;2023-05-13T09:44:25;21.40;;;9.30;;
74375;SDS011;62812;55.188;61.302;2023-05-13T09:46:52;17.70;;;9.00;;
74375;SDS011;62812;55.188;61.302;2023-05-13T09:49:22;17.50;;;9.27;;
74375;SDS011;62812;55.188;61.302;2023-05-13T09:51:55;16.05;;;8.13;;
74375;SDS011;62812;55.188;61.302;2023-05-13T09:54:23;18.17;;;9.10;;
74375;SDS011;62812;55.188;61.302;2023-05-13T09:56:50;16.98;;;8.93;;
74375;SDS011;62812;55.188;61.302;2023-05-13T09:59:30;17.25;;;9.65;;
74375;SDS011;62812;55.188;61.302;2023-05-13T10:02:03;19.50;;;9.77;;
74375;SDS011;62812;55.188;61.302;2023-05-13T10:04:34;16.52;;;8.80;;
74375;SDS011;62812;55.188;61.302;2023-05-13T10:07:03;15.95;;;8.60;;
74375;SDS011;62812;55.188;61.302;2023-05-13T10:09:33;19.48;;;9.60;;
74375;SDS011;62812;55.188;61.302;2023-05-13T10:12:05;19.50;;;9.27;;
74375;SDS011;62812;55.188;61.302;2023-05-13T10:14:35;22.70;;;10.10;;
74375;SDS011;62812;55.188;61.302;2023-05-13T10:17:05;18.58;;;9.68;;
74375;SDS011;62812;55.188;61.302;2023-05-13T10:19:34;17.67;;;9.38;;
74375;SDS011;62812;55.188;61.302;2023-05-13T10:22:02;21.95;;;10.63;;
74375;SDS011;62812;55.188;61.302;2023-05-13T10:24:30;25.70;;;12.50;;
74375;SDS011;62812;55.188;61.302;2023-05-13T10:27:00;25.60;;;11.85;;
74375;SDS011;62812;55.188;61.302;2023-05-13T10:29:31;25.48;;;12.20;;
74375;SDS011;62812;55.188;61.302;2023-05-13T10:32:02;30.20;;;13.90;;
74375;SDS011;62812;55.188;61.302;2023-05-13T10:34:35;33.17;;;16.00;;
74375;SDS011;62812;55.188;61.302;2023-05-13T10:40:19;30.05;;;13.73;;
74375;SDS011;62812;55.188;61.302;2023-05-13T10:42:59;29.40;;;13.80;;
74375;SDS011;62812;55.188;61.302;2023-05-13T10:45:37;28.10;;;13.45;;
74375;SDS011;62812;55.188;61.302;2023-05-13T10:48:09;26.58;;;12.88;;
74375;SDS011;62812;55.188;61.302;2023-05-13T10:50:38;29.38;;;12.25;;
74375;SDS011;62812;55.188;61.302;2023-05-13T10:53:17;30.45;;;13.48;;
74375;SDS011;62812;55.188;61.302;2023-05-13T10:55:50;26.52;;;12.27;;
74375;SDS011;62812;55.188;61.302;2023-05-13T10:58:18;26.45;;;12.82;;
74375;SDS011;62812;55.188;61.302;2023-05-13T11:00:47;26.02;;;12.82;;
74375;SDS011;62812;55.188;61.302;2023-05-13T11:03:27;29.65;;;14.98;;
74375;SDS011;62812;55.188;61.302;2023-05-13T11:05:59;23.88;;;13.13;;
74375;SDS011;62812;55.188;61.302;2023-05-13T11:08:39;22.27;;;10.63;;
74375;SDS011;62812;55.188;61.302;2023-05-13T11:11:21;23.48;;;11.48;;
74375;SDS011;62812;55.188;61.302;2023-05-13T11:14:12;22.48;;;11.02;;
74375;SDS011;62812;55.188;61.302;2023-05-13T11:16:47;22.20;;;12.02;;
74375;SDS011;62812;55.188;61.302;2023-05-13T11:19:26;24.27;;;12.85;;
74375;SDS011;62812;55.188;61.302;2023-05-13T11:21:55;25.42;;;13.25;;
74375;SDS011;62812;55.188;61.302;2023-05-13T11:24:24;25.77;;;13.52;;
74375;SDS011;62812;55.188;61.302;2023-05-13T11:26:52;21.90;;;11.98;;
74375;SDS011;62812;55.188;61.302;2023-05-13T11:29:26;26.38;;;15.00;;
74375;SDS011;62812;55.188;61.302;2023-05-13T11:31:56;26.70;;;14.52;;
74375;SDS011;62812;55.188;61.302;2023-05-13T11:34:23;27.55;;;14.23;;
74375;SDS011;62812;55.188;61.302;2023-05-13T11:36:54;33.95;;;14.73;;
74375;SDS011;62812;55.188;61.302;2023-05-13T11:39:28;32.72;;;15.82;;
74375;SDS011;62812;55.188;61.302;2023-05-13T11:41:55;34.83;;;16.90;;
74375;SDS011;62812;55.188;61.302;2023-05-13T11:44:22;28.88;;;15.35;;
74375;SDS011;62812;55.188;61.302;2023-05-13T11:46:51;33.40;;;15.35;;
74375;SDS011;62812;55.188;61.302;2023-05-13T11:49:33;35.72;;;17.73;;
74375;SDS011;62812;55.188;61.302;2023-05-13T11:52:07;30.05;;;15.45;;
74375;SDS011;62812;55.188;61.302;2023-05-13T11:54:46;30.52;;;16.05;;
74375;SDS011;62812;55.188;61.302;2023-05-13T11:58:11;31.77;;;16.27;;
74375;SDS011;62812;55.188;61.302;2023-05-13T12:00:43;30.80;;;15.80;;
74375;SDS011;62812;55.188;61.302;2023-05-13T12:06:08;30.20;;;15.85;;
74375;SDS011;62812;55.188;61.302;2023-05-13T12:08:43;28.15;;;15.10;;
74375;SDS011;62812;55.188;61.302;2023-05-13T12:11:13;33.70;;;17.00;;
74375;SDS011;62812;55.188;61.302;2023-05-13T12:13:41;20.60;;;11.77;;
74375;SDS011;62812;55.188;61.302;2023-05-13T12:16:11;21.60;;;10.55;;
74375;SDS011;62812;55.188;61.302;2023-05-13T12:18:38;23.35;;;11.68;;
74375;SDS011;62812;55.188;61.302;2023-05-13T12:21:14;21.70;;;12.20;;
74375;SDS011;62812;55.188;61.302;2023-05-13T12:23:44;23.58;;;13.00;;
74375;SDS011;62812;55.188;61.302;2023-05-13T12:26:12;24.00;;;13.45;;
74375;SDS011;62812;55.188;61.302;2023-05-13T12:28:38;25.65;;;14.20;;
74375;SDS011;62812;55.188;61.302;2023-05-13T12:31:06;33.33;;;16.08;;
74375;SDS011;62812;55.188;61.302;2023-05-13T12:36:37;31.17;;;15.68;;
74375;SDS011;62812;55.188;61.302;2023-05-13T12:39:07;35.42;;;17.52;;
74375;SDS011;62812;55.188;61.302;2023-05-13T12:41:40;33.88;;;15.75;;
74375;SDS011;62812;55.188;61.302;2023-05-13T12:44:12;29.60;;;17.02;;
74375;SDS011;62812;55.188;61.302;2023-05-13T12:46:48;35.47;;;15.68;;
74375;SDS011;62812;55.188;61.302;2023-05-13T12:49:29;35.60;;;15.60;;
74375;SDS011;62812;55.188;61.302;2023-05-13T12:52:05;38.72;;;16.88;;
74375;SDS011;62812;55.188;61.302;2023-05-13T12:54:37;33.17;;;14.75;;
74375;SDS011;62812;55.188;61.302;2023-05-13T12:57:07;34.25;;;16.80;;
74375;SDS011;62812;55.188;61.302;2023-05-13T12:59:35;31.00;;;16.63;;
74375;SDS011;62812;55.188;61.302;2023-05-13T13:02:09;32.05;;;14.23;;
74375;SDS011;62812;55.188;61.302;2023-05-13T13:04:38;31.95;;;14.82;;
74375;SDS011;62812;55.188;61.302;2023-05-13T13:10:08;20.05;;;10.07;;
74375;SDS011;62812;55.188;61.302;2023-05-13T13:12:40;21.92;;;12.52;;
74375;SDS011;62812;55.188;61.302;2023-05-13T13:15:10;23.17;;;11.85;;
74375;SDS011;62812;55.188;61.302;2023-05-13T13:17:39;31.48;;;14.95;;
74375;SDS011;62812;55.188;61.302;2023-05-13T13:20:09;26.30;;;12.80;;
74375;SDS011;62812;55.188;61.302;2023-05-13T13:22:37;21.65;;;12.43;;
74375;SDS011;62812;55.188;61.302;2023-05-13T13:25:08;25.90;;;13.35;;
74375;SDS011;62812;55.188;61.302;2023-05-13T13:27:35;25.08;;;13.30;;
74375;SDS011;62812;55.188;61.302;2023-05-13T13:30:03;26.42;;;12.88;;
74375;SDS011;62812;55.188;61.302;2023-05-13T13:35:08;22.35;;;10.68;;
74375;SDS011;62812;55.188;61.302;2023-05-13T13:37:37;26.27;;;13.43;;
74375;SDS011;62812;55.188;61.302;2023-05-13T13:40:11;21.38;;;11.70;;
74375;SDS011;62812;55.188;61.302;2023-05-13T13:42:38;21.63;;;12.13;;
74375;SDS011;62812;55.188;61.302;2023-05-13T13:45:09;21.70;;;12.75;;
74375;SDS011;62812;55.188;61.302;2023-05-13T13:47:40;18.08;;;10.63;;
74375;SDS011;62812;55.188;61.302;2023-05-13T13:50:07;17.67;;;10.43;;
74375;SDS011;62812;55.188;61.302;2023-05-13T13:52:37;20.98;;;10.02;;
74375;SDS011;62812;55.188;61.302;2023-05-13T13:55:04;20.65;;;10.52;;
74375;SDS011;62812;55.188;61.302;2023-05-13T13:57:34;21.48;;;10.88;;
74375;SDS011;62812;55.188;61.302;2023-05-13T14:00:02;20.88;;;11.23;;
74375;SDS011;62812;55.188;61.302;2023-05-13T14:02:32;22.73;;;10.77;;
74375;SDS011;62812;55.188;61.302;2023-05-13T14:05:00;19.85;;;11.15;;
74375;SDS011;62812;55.188;61.302;2023-05-13T14:07:28;22.58;;;11.07;;
74375;SDS011;62812;55.188;61.302;2023-05-13T14:10:03;20.35;;;10.77;;
74375;SDS011;62812;55.188;61.302;2023-05-13T14:12:30;20.65;;;10.52;;
74375;SDS011;62812;55.188;61.302;2023-05-13T14:15:15;23.15;;;10.93;;
74375;SDS011;62812;55.188;61.302;2023-05-13T14:17:42;20.75;;;10.95;;
74375;SDS011;62812;55.188;61.302;2023-05-13T14:20:13;28.05;;;12.95;;
74375;SDS011;62812;55.188;61.302;2023-05-13T14:22:44;24.20;;;11.95;;
74375;SDS011;62812;55.188;61.302;2023-05-13T14:25:16;28.63;;;11.85;;
74375;SDS011;62812;55.188;61.302;2023-05-13T14:27:47;25.15;;;12.00;;
74375;SDS011;62812;55.188;61.302;2023-05-13T14:30:24;26.88;;;13.82;;
74375;SDS011;62812;55.188;61.302;2023-05-13T14:36:58;24.20;;;11.27;;
74375;SDS011;62812;55.188;61.302;2023-05-13T14:39:28;23.83;;;12.75;;
74375;SDS011;62812;55.188;61.302;2023-05-13T14:41:55;20.77;;;11.95;;
74375;SDS011;62812;55.188;61.302;2023-05-13T14:44:23;19.73;;;10.85;;
74375;SDS011;62812;55.188;61.302;2023-05-13T14:46:52;21.98;;;11.35;;
74375;SDS011;62812;55.188;61.302;2023-05-13T14:49:21;27.40;;;11.52;;
74375;SDS011;62812;55.188;61.302;2023-05-13T14:51:49;24.08;;;12.02;;
74375;SDS011;62812;55.188;61.302;2023-05-13T14:54:16;24.17;;;12.65;;
74375;SDS011;62812;55.188;61.302;2023-05-13T14:56:44;22.38;;;11.10;;
74375;SDS011;62812;55.188;61.302;2023-05-13T14:59:11;27.88;;;11.88;;
74375;SDS011;62812;55.188;61.302;2023-05-13T15:01:38;25.48;;;12.13;;
74375;SDS011;62812;55.188;61.302;2023-05-13T15:04:06;28.70;;;12.70;;
74375;SDS011;62812;55.188;61.302;2023-05-13T15:06:37;28.17;;;12.30;;